sensor_id;sensor_type;location;lat;lon;timestamp;temperature;humidity
19214;DHT22;9741;51.020;5.304;2023-03-14T00:00:15;12.90;60.60
19214;DHT22;9741;51.020;5.304;2023-03-14T00:02:43;12.80;60.60
19214;DHT22;9741;51.020;5.304;2023-03-14T00:05:10;12.80;60.60
19214;DHT22;9741;51.020;5.304;2023-03-14T00:07:38;12.70;60.60
19214;DHT22;9741;51.020;5.304;2023-03-14T00:10:08;12.70;60.50
19214;DHT22;9741;51.020;5.304;2023-03-14T00:12:35;12.70;60.50
19214;DHT22;9741;51.020;5.304;2023-03-14T00:15:05;12.70;60.40
19214;DHT22;9741;51.020;5.304;2023-03-14T00:17:33;12.70;60.30
19214;DHT22;9741;51.020;5.304;2023-03-14T00:20:00;12.70;60.10
19214;DHT22;9741;51.020;5.304;2023-03-14T00:22:30;12.60;60.00
19214;DHT22;9741;51.020;5.304;2023-03-14T00:24:57;12.60;59.90
19214;DHT22;9741;51.020;5.304;2023-03-14T00:27:25;12.60;59.90
19214;DHT22;9741;51.020;5.304;2023-03-14T00:29:52;12.60;59.80
19214;DHT22;9741;51.020;5.304;2023-03-14T00:32:20;12.60;59.80
19214;DHT22;9741;51.020;5.304;2023-03-14T00:34:47;12.50;59.80
19214;DHT22;9741;51.020;5.304;2023-03-14T00:37:14;12.50;59.80
19214;DHT22;9741;51.020;5.304;2023-03-14T00:39:41;12.60;60.00
19214;DHT22;9741;51.020;5.304;2023-03-14T00:42:08;12.50;60.00
19214;DHT22;9741;51.020;5.304;2023-03-14T00:44:35;12.50;60.10
19214;DHT22;9741;51.020;5.304;2023-03-14T00:47:03;12.50;60.10
19214;DHT22;9741;51.020;5.304;2023-03-14T00:49:31;12.50;60.10
19214;DHT22;9741;51.020;5.304;2023-03-14T00:51:58;12.50;60.20
19214;DHT22;9741;51.020;5.304;2023-03-14T00:54:25;12.50;60.20
19214;DHT22;9741;51.020;5.304;2023-03-14T00:56:52;12.40;60.20
19214;DHT22;9741;51.020;5.304;2023-03-14T00:59:19;12.40;60.20
19214;DHT22;9741;51.020;5.304;2023-03-14T01:01:46;12.40;60.20
19214;DHT22;9741;51.020;5.304;2023-03-14T01:04:13;12.40;60.20
19214;DHT22;9741;51.020;5.304;2023-03-14T01:06:42;12.40;60.30
19214;DHT22;9741;51.020;5.304;2023-03-14T01:09:09;12.40;60.40
19214;DHT22;9741;51.020;5.304;2023-03-14T01:11:36;12.30;60.40
19214;DHT22;9741;51.020;5.304;2023-03-14T01:14:04;12.30;60.50
19214;DHT22;9741;51.020;5.304;2023-03-14T01:16:33;12.30;60.60
19214;DHT22;9741;51.020;5.304;2023-03-14T01:19:00;12.30;60.70
19214;DHT22;9741;51.020;5.304;2023-03-14T01:21:29;12.20;60.70
19214;DHT22;9741;51.020;5.304;2023-03-14T01:24:00;12.20;60.80
19214;DHT22;9741;51.020;5.304;2023-03-14T01:26:29;12.20;60.90
19214;DHT22;9741;51.020;5.304;2023-03-14T01:28:57;12.20;61.00
19214;DHT22;9741;51.020;5.304;2023-03-14T01:31:25;12.10;61.00
19214;DHT22;9741;51.020;5.304;2023-03-14T01:33:52;12.10;61.10
19214;DHT22;9741;51.020;5.304;2023-03-14T01:36:19;12.10;61.10
19214;DHT22;9741;51.020;5.304;2023-03-14T01:38:47;12.10;61.10
19214;DHT22;9741;51.020;5.304;2023-03-14T01:41:17;12.10;61.20
19214;DHT22;9741;51.020;5.304;2023-03-14T01:43:45;12.10;61.20
19214;DHT22;9741;51.020;5.304;2023-03-14T01:46:37;12.00;61.10
19214;DHT22;9741;51.020;5.304;2023-03-14T01:49:09;12.00;61.20
19214;DHT22;9741;51.020;5.304;2023-03-14T01:51:43;11.90;61.20
19214;DHT22;9741;51.020;5.304;2023-03-14T01:54:15;11.90;61.40
19214;DHT22;9741;51.020;5.304;2023-03-14T01:56:47;12.00;61.40
19214;DHT22;9741;51.020;5.304;2023-03-14T01:59:15;12.00;61.40
19214;DHT22;9741;51.020;5.304;2023-03-14T02:01:44;12.00;61.40
19214;DHT22;9741;51.020;5.304;2023-03-14T02:04:14;12.00;61.40
19214;DHT22;9741;51.020;5.304;2023-03-14T02:06:49;12.00;61.60
19214;DHT22;9741;51.020;5.304;2023-03-14T02:09:17;12.00;61.30
19214;DHT22;9741;51.020;5.304;2023-03-14T02:11:46;12.00;61.20
19214;DHT22;9741;51.020;5.304;2023-03-14T02:14:21;12.00;61.20
19214;DHT22;9741;51.020;5.304;2023-03-14T02:16:51;12.00;61.20
19214;DHT22;9741;51.020;5.304;2023-03-14T02:19:26;12.00;61.20
19214;DHT22;9741;51.020;5.304;2023-03-14T02:22:02;12.00;61.20
19214;DHT22;9741;51.020;5.304;2023-03-14T02:24:35;12.00;61.20
19214;DHT22;9741;51.020;5.304;2023-03-14T02:27:10;12.00;61.20
19214;DHT22;9741;51.020;5.304;2023-03-14T02:29:42;12.00;61.20
19214;DHT22;9741;51.020;5.304;2023-03-14T02:32:12;12.00;61.20
19214;DHT22;9741;51.020;5.304;2023-03-14T02:34:40;11.90;61.20
19214;DHT22;9741;51.020;5.304;2023-03-14T02:37:09;12.00;61.80
19214;DHT22;9741;51.020;5.304;2023-03-14T02:39:38;12.00;61.20
19214;DHT22;9741;51.020;5.304;2023-03-14T02:42:07;12.00;61.20
19214;DHT22;9741;51.020;5.304;2023-03-14T02:44:34;12.00;61.20
19214;DHT22;9741;51.020;5.304;2023-03-14T02:47:03;12.00;61.20
19214;DHT22;9741;51.020;5.304;2023-03-14T02:49:32;11.90;61.20
19214;DHT22;9741;51.020;5.304;2023-03-14T02:52:00;11.90;61.30
19214;DHT22;9741;51.020;5.304;2023-03-14T02:54:27;11.80;61.30
19214;DHT22;9741;51.020;5.304;2023-03-14T02:56:54;11.80;61.50
19214;DHT22;9741;51.020;5.304;2023-03-14T02:59:22;11.70;61.60
19214;DHT22;9741;51.020;5.304;2023-03-14T03:01:49;11.60;61.70
19214;DHT22;9741;51.020;5.304;2023-03-14T03:04:16;11.50;61.80
19214;DHT22;9741;51.020;5.304;2023-03-14T03:06:43;11.40;61.90
19214;DHT22;9741;51.020;5.304;2023-03-14T03:09:10;11.40;62.20
19214;DHT22;9741;51.020;5.304;2023-03-14T03:11:37;11.30;62.30
19214;DHT22;9741;51.020;5.304;2023-03-14T03:14:04;11.30;62.40
19214;DHT22;9741;51.020;5.304;2023-03-14T03:16:32;11.30;62.60
19214;DHT22;9741;51.020;5.304;2023-03-14T03:18:59;11.20;62.70
19214;DHT22;9741;51.020;5.304;2023-03-14T03:21:26;11.20;62.90
19214;DHT22;9741;51.020;5.304;2023-03-14T03:23:53;11.10;63.00
19214;DHT22;9741;51.020;5.304;2023-03-14T03:26:20;11.20;63.20
19214;DHT22;9741;51.020;5.304;2023-03-14T03:28:47;11.10;63.20
19214;DHT22;9741;51.020;5.304;2023-03-14T03:31:16;11.10;63.30
19214;DHT22;9741;51.020;5.304;2023-03-14T03:33:45;11.10;63.40
19214;DHT22;9741;51.020;5.304;2023-03-14T03:36:12;11.10;63.40
19214;DHT22;9741;51.020;5.304;2023-03-14T03:38:39;11.10;63.50
19214;DHT22;9741;51.020;5.304;2023-03-14T03:41:07;11.10;63.60
19214;DHT22;9741;51.020;5.304;2023-03-14T03:43:34;11.10;63.60
19214;DHT22;9741;51.020;5.304;2023-03-14T03:46:03;11.10;63.70
19214;DHT22;9741;51.020;5.304;2023-03-14T03:48:30;11.10;63.80
19214;DHT22;9741;51.020;5.304;2023-03-14T03:50:59;11.10;63.90
19214;DHT22;9741;51.020;5.304;2023-03-14T03:53:26;11.10;64.00
19214;DHT22;9741;51.020;5.304;2023-03-14T03:55:53;11.10;64.00
19214;DHT22;9741;51.020;5.304;2023-03-14T03:58:20;11.10;64.10
19214;DHT22;9741;51.020;5.304;2023-03-14T04:00:47;11.10;64.20
19214;DHT22;9741;51.020;5.304;2023-03-14T04:03:14;11.10;64.20
19214;DHT22;9741;51.020;5.304;2023-03-14T04:05:41;11.10;64.90
19214;DHT22;9741;51.020;5.304;2023-03-14T04:08:10;11.10;64.40
19214;DHT22;9741;51.020;5.304;2023-03-14T04:10:37;11.10;64.60
19214;DHT22;9741;51.020;5.304;2023-03-14T04:13:04;11.10;64.70
19214;DHT22;9741;51.020;5.304;2023-03-14T04:15:31;11.10;64.70
19214;DHT22;9741;51.020;5.304;2023-03-14T04:17:58;11.10;64.80
19214;DHT22;9741;51.020;5.304;2023-03-14T04:20:25;11.10;64.90
19214;DHT22;9741;51.020;5.304;2023-03-14T04:22:52;11.10;65.00
19214;DHT22;9741;51.020;5.304;2023-03-14T04:25:20;11.10;65.10
19214;DHT22;9741;51.020;5.304;2023-03-14T04:27:48;11.10;65.20
19214;DHT22;9741;51.020;5.304;2023-03-14T04:30:15;11.10;65.30
19214;DHT22;9741;51.020;5.304;2023-03-14T04:32:42;11.10;65.40
19214;DHT22;9741;51.020;5.304;2023-03-14T04:35:09;11.10;65.50
19214;DHT22;9741;51.020;5.304;2023-03-14T04:37:36;11.20;65.70
19214;DHT22;9741;51.020;5.304;2023-03-14T04:40:03;11.10;65.60
19214;DHT22;9741;51.020;5.304;2023-03-14T04:42:33;11.10;65.70
19214;DHT22;9741;51.020;5.304;2023-03-14T04:45:00;11.20;65.90
19214;DHT22;9741;51.020;5.304;2023-03-14T04:47:27;11.20;66.00
19214;DHT22;9741;51.020;5.304;2023-03-14T04:49:55;11.20;66.10
19214;DHT22;9741;51.020;5.304;2023-03-14T04:52:22;11.20;66.10
19214;DHT22;9741;51.020;5.304;2023-03-14T04:54:49;11.20;66.20
19214;DHT22;9741;51.020;5.304;2023-03-14T04:57:16;11.20;66.20
19214;DHT22;9741;51.020;5.304;2023-03-14T04:59:44;11.20;66.20
19214;DHT22;9741;51.020;5.304;2023-03-14T05:02:11;11.20;66.30
19214;DHT22;9741;51.020;5.304;2023-03-14T05:04:38;11.20;66.40
19214;DHT22;9741;51.020;5.304;2023-03-14T05:07:05;11.20;66.40
19214;DHT22;9741;51.020;5.304;2023-03-14T05:09:32;11.30;66.60
19214;DHT22;9741;51.020;5.304;2023-03-14T05:11:59;11.30;66.60
19214;DHT22;9741;51.020;5.304;2023-03-14T05:14:26;11.30;66.60
19214;DHT22;9741;51.020;5.304;2023-03-14T05:16:55;11.30;66.70
19214;DHT22;9741;51.020;5.304;2023-03-14T05:19:22;11.30;66.70
19214;DHT22;9741;51.020;5.304;2023-03-14T05:21:49;11.40;66.70
19214;DHT22;9741;51.020;5.304;2023-03-14T05:24:16;11.30;66.70
19214;DHT22;9741;51.020;5.304;2023-03-14T05:26:43;11.40;66.70
19214;DHT22;9741;51.020;5.304;2023-03-14T05:29:10;11.40;67.30
19214;DHT22;9741;51.020;5.304;2023-03-14T05:31:38;11.40;66.80
19214;DHT22;9741;51.020;5.304;2023-03-14T05:34:06;11.40;66.80
19214;DHT22;9741;51.020;5.304;2023-03-14T05:36:33;11.40;66.80
19214;DHT22;9741;51.020;5.304;2023-03-14T05:39:00;11.40;66.90
19214;DHT22;9741;51.020;5.304;2023-03-14T05:41:27;11.50;67.00
19214;DHT22;9741;51.020;5.304;2023-03-14T05:43:54;11.50;67.00
19214;DHT22;9741;51.020;5.304;2023-03-14T05:46:21;11.50;66.90
19214;DHT22;9741;51.020;5.304;2023-03-14T05:48:48;11.50;66.90
19214;DHT22;9741;51.020;5.304;2023-03-14T05:51:17;11.50;66.90
19214;DHT22;9741;51.020;5.304;2023-03-14T05:53:44;11.50;67.00
19214;DHT22;9741;51.020;5.304;2023-03-14T05:56:11;11.50;67.00
19214;DHT22;9741;51.020;5.304;2023-03-14T05:58:38;11.50;67.00
19214;DHT22;9741;51.020;5.304;2023-03-14T06:01:06;11.40;66.90
19214;DHT22;9741;51.020;5.304;2023-03-14T06:03:33;11.40;66.90
19214;DHT22;9741;51.020;5.304;2023-03-14T06:06:01;11.50;67.10
19214;DHT22;9741;51.020;5.304;2023-03-14T06:08:29;11.40;67.10
19214;DHT22;9741;51.020;5.304;2023-03-14T06:10:57;11.40;67.10
19214;DHT22;9741;51.020;5.304;2023-03-14T06:13:24;11.50;67.30
19214;DHT22;9741;51.020;5.304;2023-03-14T06:15:51;11.50;67.30
19214;DHT22;9741;51.020;5.304;2023-03-14T06:18:18;11.50;67.80
19214;DHT22;9741;51.020;5.304;2023-03-14T06:20:45;11.50;67.20
19214;DHT22;9741;51.020;5.304;2023-03-14T06:23:12;11.50;67.30
19214;DHT22;9741;51.020;5.304;2023-03-14T06:25:40;11.50;67.30
19214;DHT22;9741;51.020;5.304;2023-03-14T06:28:07;11.40;67.30
19214;DHT22;9741;51.020;5.304;2023-03-14T06:30:34;11.50;67.40
19214;DHT22;9741;51.020;5.304;2023-03-14T06:33:01;11.50;67.50
19214;DHT22;9741;51.020;5.304;2023-03-14T06:35:28;11.50;67.60
19214;DHT22;9741;51.020;5.304;2023-03-14T06:37:56;11.50;67.60
19214;DHT22;9741;51.020;5.304;2023-03-14T06:40:23;11.60;67.60
19214;DHT22;9741;51.020;5.304;2023-03-14T06:42:51;11.60;67.70
19214;DHT22;9741;51.020;5.304;2023-03-14T06:45:18;11.60;67.70
19214;DHT22;9741;51.020;5.304;2023-03-14T06:47:45;11.60;67.70
19214;DHT22;9741;51.020;5.304;2023-03-14T06:50:12;11.60;67.80
19214;DHT22;9741;51.020;5.304;2023-03-14T06:52:39;11.70;67.90
19214;DHT22;9741;51.020;5.304;2023-03-14T06:55:11;11.70;67.90
19214;DHT22;9741;51.020;5.304;2023-03-14T06:57:38;11.90;68.10
19214;DHT22;9741;51.020;5.304;2023-03-14T07:00:12;11.90;68.10
19214;DHT22;9741;51.020;5.304;2023-03-14T07:02:40;12.10;68.20
19214;DHT22;9741;51.020;5.304;2023-03-14T07:05:08;12.20;68.20
19214;DHT22;9741;51.020;5.304;2023-03-14T07:07:36;12.30;68.20
19214;DHT22;9741;51.020;5.304;2023-03-14T07:10:03;12.50;68.20
19214;DHT22;9741;51.020;5.304;2023-03-14T07:12:30;12.50;68.00
19214;DHT22;9741;51.020;5.304;2023-03-14T07:14:57;12.50;67.80
19214;DHT22;9741;51.020;5.304;2023-03-14T07:17:26;12.50;67.80
19214;DHT22;9741;51.020;5.304;2023-03-14T07:19:53;12.50;67.80
19214;DHT22;9741;51.020;5.304;2023-03-14T07:22:20;12.50;67.80
19214;DHT22;9741;51.020;5.304;2023-03-14T07:24:47;12.40;67.60
19214;DHT22;9741;51.020;5.304;2023-03-14T07:27:14;12.30;67.50
19214;DHT22;9741;51.020;5.304;2023-03-14T07:29:41;12.30;67.50
19214;DHT22;9741;51.020;5.304;2023-03-14T07:32:08;12.20;67.60
19214;DHT22;9741;51.020;5.304;2023-03-14T07:34:36;12.10;67.70
19214;DHT22;9741;51.020;5.304;2023-03-14T07:37:03;12.10;67.80
19214;DHT22;9741;51.020;5.304;2023-03-14T07:39:30;12.10;67.90
19214;DHT22;9741;51.020;5.304;2023-03-14T07:41:58;12.10;67.90
19214;DHT22;9741;51.020;5.304;2023-03-14T07:44:24;12.10;67.90
19214;DHT22;9741;51.020;5.304;2023-03-14T07:46:51;12.10;67.90
19214;DHT22;9741;51.020;5.304;2023-03-14T07:49:19;12.10;67.90
19214;DHT22;9741;51.020;5.304;2023-03-14T07:51:49;12.00;67.80
19214;DHT22;9741;51.020;5.304;2023-03-14T07:54:16;11.90;67.10
19214;DHT22;9741;51.020;5.304;2023-03-14T07:56:43;11.60;66.80
19214;DHT22;9741;51.020;5.304;2023-03-14T07:59:10;11.40;66.50
19214;DHT22;9741;51.020;5.304;2023-03-14T08:01:38;11.20;66.60
19214;DHT22;9741;51.020;5.304;2023-03-14T08:04:05;11.00;66.70
19214;DHT22;9741;51.020;5.304;2023-03-14T08:06:32;11.00;66.80
19214;DHT22;9741;51.020;5.304;2023-03-14T08:09:00;10.90;66.70
19214;DHT22;9741;51.020;5.304;2023-03-14T08:11:27;10.80;66.70
19214;DHT22;9741;51.020;5.304;2023-03-14T08:13:54;10.80;66.60
19214;DHT22;9741;51.020;5.304;2023-03-14T08:16:22;10.70;66.30
19214;DHT22;9741;51.020;5.304;2023-03-14T08:18:49;10.60;66.10
19214;DHT22;9741;51.020;5.304;2023-03-14T08:21:16;10.50;66.00
19214;DHT22;9741;51.020;5.304;2023-03-14T08:23:43;10.40;66.00
19214;DHT22;9741;51.020;5.304;2023-03-14T08:26:11;10.30;66.00
19214;DHT22;9741;51.020;5.304;2023-03-14T08:28:38;10.20;65.90
19214;DHT22;9741;51.020;5.304;2023-03-14T08:31:05;10.10;65.90
19214;DHT22;9741;51.020;5.304;2023-03-14T08:33:32;10.00;65.90
19214;DHT22;9741;51.020;5.304;2023-03-14T08:36:00;10.00;66.00
19214;DHT22;9741;51.020;5.304;2023-03-14T08:38:27;10.00;66.20
19214;DHT22;9741;51.020;5.304;2023-03-14T08:40:57;10.00;66.10
19214;DHT22;9741;51.020;5.304;2023-03-14T08:43:27;10.00;66.20
19214;DHT22;9741;51.020;5.304;2023-03-14T08:45:58;10.00;66.10
19214;DHT22;9741;51.020;5.304;2023-03-14T08:48:25;10.10;66.30
19214;DHT22;9741;51.020;5.304;2023-03-14T08:50:52;10.30;66.50
19214;DHT22;9741;51.020;5.304;2023-03-14T08:53:19;10.40;66.40
19214;DHT22;9741;51.020;5.304;2023-03-14T08:55:51;10.50;66.00
19214;DHT22;9741;51.020;5.304;2023-03-14T08:58:18;10.50;65.70
19214;DHT22;9741;51.020;5.304;2023-03-14T09:00:47;10.40;65.40
19214;DHT22;9741;51.020;5.304;2023-03-14T09:03:13;10.30;65.50
19214;DHT22;9741;51.020;5.304;2023-03-14T09:05:41;10.30;65.50
19214;DHT22;9741;51.020;5.304;2023-03-14T09:08:08;10.30;65.50
19214;DHT22;9741;51.020;5.304;2023-03-14T09:10:35;10.30;65.40
19214;DHT22;9741;51.020;5.304;2023-03-14T09:13:04;10.30;65.50
19214;DHT22;9741;51.020;5.304;2023-03-14T09:15:31;10.30;65.50
19214;DHT22;9741;51.020;5.304;2023-03-14T09:17:59;10.20;65.30
19214;DHT22;9741;51.020;5.304;2023-03-14T09:20:26;10.30;65.50
19214;DHT22;9741;51.020;5.304;2023-03-14T09:22:54;10.30;65.50
19214;DHT22;9741;51.020;5.304;2023-03-14T09:25:21;10.40;65.60
19214;DHT22;9741;51.020;5.304;2023-03-14T09:27:48;10.40;65.50
19214;DHT22;9741;51.020;5.304;2023-03-14T09:30:15;10.50;65.40
19214;DHT22;9741;51.020;5.304;2023-03-14T09:32:43;10.50;65.30
19214;DHT22;9741;51.020;5.304;2023-03-14T09:35:11;10.50;65.30
19214;DHT22;9741;51.020;5.304;2023-03-14T09:37:38;10.60;65.40
19214;DHT22;9741;51.020;5.304;2023-03-14T09:40:06;10.60;65.20
19214;DHT22;9741;51.020;5.304;2023-03-14T09:42:37;10.60;65.00
19214;DHT22;9741;51.020;5.304;2023-03-14T09:45:11;10.50;64.70
19214;DHT22;9741;51.020;5.304;2023-03-14T09:47:38;10.50;64.90
19214;DHT22;9741;51.020;5.304;2023-03-14T09:50:13;10.60;65.30
19214;DHT22;9741;51.020;5.304;2023-03-14T09:52:43;10.70;65.30
19214;DHT22;9741;51.020;5.304;2023-03-14T09:55:13;10.80;65.10
19214;DHT22;9741;51.020;5.304;2023-03-14T09:57:42;10.90;65.00
19214;DHT22;9741;51.020;5.304;2023-03-14T10:00:15;11.00;64.70
19214;DHT22;9741;51.020;5.304;2023-03-14T10:02:47;11.00;64.40
19214;DHT22;9741;51.020;5.304;2023-03-14T10:05:20;10.90;64.10
19214;DHT22;9741;51.020;5.304;2023-03-14T10:07:47;10.80;64.10
19214;DHT22;9741;51.020;5.304;2023-03-14T10:10:17;10.60;64.00
19214;DHT22;9741;51.020;5.304;2023-03-14T10:12:46;10.70;64.40
19214;DHT22;9741;51.020;5.304;2023-03-14T10:15:15;10.80;64.50
19214;DHT22;9741;51.020;5.304;2023-03-14T10:17:47;10.90;64.50
19214;DHT22;9741;51.020;5.304;2023-03-14T10:20:33;11.00;64.30
19214;DHT22;9741;51.020;5.304;2023-03-14T10:23:02;11.20;64.30
19214;DHT22;9741;51.020;5.304;2023-03-14T10:25:32;11.30;64.10
19214;DHT22;9741;51.020;5.304;2023-03-14T10:27:59;11.30;63.80
19214;DHT22;9741;51.020;5.304;2023-03-14T10:30:38;11.40;63.70
19214;DHT22;9741;51.020;5.304;2023-03-14T10:33:10;11.30;63.30
19214;DHT22;9741;51.020;5.304;2023-03-14T10:35:39;11.30;63.30
19214;DHT22;9741;51.020;5.304;2023-03-14T10:38:13;11.20;63.20
19214;DHT22;9741;51.020;5.304;2023-03-14T10:40:46;11.20;63.30
19214;DHT22;9741;51.020;5.304;2023-03-14T10:43:17;11.30;63.60
19214;DHT22;9741;51.020;5.304;2023-03-14T10:45:52;11.60;63.80
19214;DHT22;9741;51.020;5.304;2023-03-14T10:48:29;11.80;63.40
19214;DHT22;9741;51.020;5.304;2023-03-14T10:51:03;11.80;62.80
19214;DHT22;9741;51.020;5.304;2023-03-14T10:53:40;11.80;62.50
19214;DHT22;9741;51.020;5.304;2023-03-14T10:56:09;11.60;62.20
19214;DHT22;9741;51.020;5.304;2023-03-14T10:58:41;11.50;62.20
19214;DHT22;9741;51.020;5.304;2023-03-14T11:01:30;11.30;62.20
19214;DHT22;9741;51.020;5.304;2023-03-14T11:04:03;11.10;62.30
19214;DHT22;9741;51.020;5.304;2023-03-14T11:06:39;11.00;62.50
19214;DHT22;9741;51.020;5.304;2023-03-14T11:09:15;10.90;62.60
19214;DHT22;9741;51.020;5.304;2023-03-14T11:11:47;11.00;63.00
19214;DHT22;9741;51.020;5.304;2023-03-14T11:14:20;11.10;63.10
19214;DHT22;9741;51.020;5.304;2023-03-14T11:16:57;11.20;63.20
19214;DHT22;9741;51.020;5.304;2023-03-14T11:19:33;11.30;63.20
19214;DHT22;9741;51.020;5.304;2023-03-14T11:22:19;11.30;62.80
19214;DHT22;9741;51.020;5.304;2023-03-14T11:25:00;11.10;62.40
19214;DHT22;9741;51.020;5.304;2023-03-14T11:27:39;10.90;62.30
19214;DHT22;9741;51.020;5.304;2023-03-14T11:30:17;10.50;61.90
19214;DHT22;9741;51.020;5.304;2023-03-14T11:32:46;10.30;62.10
19214;DHT22;9741;51.020;5.304;2023-03-14T11:35:17;10.20;62.60
19214;DHT22;9741;51.020;5.304;2023-03-14T11:37:52;10.20;62.90
19214;DHT22;9741;51.020;5.304;2023-03-14T11:40:23;10.30;63.10
19214;DHT22;9741;51.020;5.304;2023-03-14T11:43:04;10.40;63.20
19214;DHT22;9741;51.020;5.304;2023-03-14T11:45:35;10.60;63.20
19214;DHT22;9741;51.020;5.304;2023-03-14T11:48:26;10.80;63.20
19214;DHT22;9741;51.020;5.304;2023-03-14T11:50:57;11.00;63.10
19214;DHT22;9741;51.020;5.304;2023-03-14T11:53:39;11.30;63.10
19214;DHT22;9741;51.020;5.304;2023-03-14T11:56:13;11.60;63.10
19214;DHT22;9741;51.020;5.304;2023-03-14T11:58:48;11.90;63.00
19214;DHT22;9741;51.020;5.304;2023-03-14T12:01:18;12.30;63.00
19214;DHT22;9741;51.020;5.304;2023-03-14T12:03:53;12.60;62.60
19214;DHT22;9741;51.020;5.304;2023-03-14T12:06:24;12.70;62.50
19214;DHT22;9741;51.020;5.304;2023-03-14T12:08:54;12.60;61.00
19214;DHT22;9741;51.020;5.304;2023-03-14T12:11:33;12.20;60.30
19214;DHT22;9741;51.020;5.304;2023-03-14T12:14:03;11.80;60.20
19214;DHT22;9741;51.020;5.304;2023-03-14T12:16:33;11.40;60.30
19214;DHT22;9741;51.020;5.304;2023-03-14T12:19:26;11.20;60.60
19214;DHT22;9741;51.020;5.304;2023-03-14T12:21:57;11.00;60.50
19214;DHT22;9741;51.020;5.304;2023-03-14T12:24:29;10.80;60.50
19214;DHT22;9741;51.020;5.304;2023-03-14T12:26:58;10.80;60.70
19214;DHT22;9741;51.020;5.304;2023-03-14T12:29:25;10.60;60.40
19214;DHT22;9741;51.020;5.304;2023-03-14T12:32:23;10.50;60.30
19214;DHT22;9741;51.020;5.304;2023-03-14T12:34:50;10.30;60.20
19214;DHT22;9741;51.020;5.304;2023-03-14T12:37:29;10.10;60.30
19214;DHT22;9741;51.020;5.304;2023-03-14T12:40:16;10.00;60.30
19214;DHT22;9741;51.020;5.304;2023-03-14T12:42:54;10.00;60.40
19214;DHT22;9741;51.020;5.304;2023-03-14T12:45:26;9.80;61.10
19214;DHT22;9741;51.020;5.304;2023-03-14T12:50:53;9.50;61.40
19214;DHT22;9741;51.020;5.304;2023-03-14T12:54:02;9.50;61.80
19214;DHT22;9741;51.020;5.304;2023-03-14T12:56:56;9.60;62.00
19214;DHT22;9741;51.020;5.304;2023-03-14T12:59:33;9.80;62.10
19214;DHT22;9741;51.020;5.304;2023-03-14T13:02:12;9.90;62.20
19214;DHT22;9741;51.020;5.304;2023-03-14T13:04:44;10.10;61.20
19214;DHT22;9741;51.020;5.304;2023-03-14T13:07:13;10.30;61.20
19214;DHT22;9741;51.020;5.304;2023-03-14T13:09:54;10.40;61.00
19214;DHT22;9741;51.020;5.304;2023-03-14T13:12:29;10.50;60.80
19214;DHT22;9741;51.020;5.304;2023-03-14T13:14:59;10.60;60.80
19214;DHT22;9741;51.020;5.304;2023-03-14T13:17:31;10.70;60.70
19214;DHT22;9741;51.020;5.304;2023-03-14T13:20:02;10.80;60.60
19214;DHT22;9741;51.020;5.304;2023-03-14T13:22:33;10.90;60.50
19214;DHT22;9741;51.020;5.304;2023-03-14T13:25:06;10.90;60.50
19214;DHT22;9741;51.020;5.304;2023-03-14T13:27:35;11.10;60.50
19214;DHT22;9741;51.020;5.304;2023-03-14T13:30:12;11.20;60.80
19214;DHT22;9741;51.020;5.304;2023-03-14T13:32:42;11.20;60.00
19214;DHT22;9741;51.020;5.304;2023-03-14T13:35:15;11.30;59.80
19214;DHT22;9741;51.020;5.304;2023-03-14T13:37:43;11.40;59.60
19214;DHT22;9741;51.020;5.304;2023-03-14T13:40:19;11.40;59.40
19214;DHT22;9741;51.020;5.304;2023-03-14T13:42:48;11.40;59.10
19214;DHT22;9741;51.020;5.304;2023-03-14T13:45:15;11.50;59.50
19214;DHT22;9741;51.020;5.304;2023-03-14T13:47:42;11.60;58.80
19214;DHT22;9741;51.020;5.304;2023-03-14T13:50:15;11.60;58.40
19214;DHT22;9741;51.020;5.304;2023-03-14T13:52:43;11.70;58.50
19214;DHT22;9741;51.020;5.304;2023-03-14T13:55:16;11.70;58.20
19214;DHT22;9741;51.020;5.304;2023-03-14T13:57:48;11.70;58.00
19214;DHT22;9741;51.020;5.304;2023-03-14T14:00:21;11.80;58.00
19214;DHT22;9741;51.020;5.304;2023-03-14T14:02:49;11.80;57.80
19214;DHT22;9741;51.020;5.304;2023-03-14T14:05:17;11.90;57.70
19214;DHT22;9741;51.020;5.304;2023-03-14T14:07:44;11.90;57.50
19214;DHT22;9741;51.020;5.304;2023-03-14T14:10:13;11.90;57.20
19214;DHT22;9741;51.020;5.304;2023-03-14T14:12:43;11.90;57.10
19214;DHT22;9741;51.020;5.304;2023-03-14T14:15:19;11.90;56.90
19214;DHT22;9741;51.020;5.304;2023-03-14T14:17:51;11.90;56.80
19214;DHT22;9741;51.020;5.304;2023-03-14T14:20:22;11.90;56.70
19214;DHT22;9741;51.020;5.304;2023-03-14T14:22:50;12.00;56.40
19214;DHT22;9741;51.020;5.304;2023-03-14T14:25:18;11.90;55.90
19214;DHT22;9741;51.020;5.304;2023-03-14T14:27:48;11.90;55.50
19214;DHT22;9741;51.020;5.304;2023-03-14T14:30:30;11.80;54.90
19214;DHT22;9741;51.020;5.304;2023-03-14T14:33:18;11.80;54.50
19214;DHT22;9741;51.020;5.304;2023-03-14T14:35:54;11.80;54.20
19214;DHT22;9741;51.020;5.304;2023-03-14T14:38:25;11.80;53.90
19214;DHT22;9741;51.020;5.304;2023-03-14T14:40:54;11.80;53.70
19214;DHT22;9741;51.020;5.304;2023-03-14T14:43:24;11.80;53.30
19214;DHT22;9741;51.020;5.304;2023-03-14T14:45:55;11.70;52.80
19214;DHT22;9741;51.020;5.304;2023-03-14T14:48:24;11.60;52.50
19214;DHT22;9741;51.020;5.304;2023-03-14T14:50:58;11.70;53.20
19214;DHT22;9741;51.020;5.304;2023-03-14T14:53:29;11.70;52.60
19214;DHT22;9741;51.020;5.304;2023-03-14T14:55:59;11.70;52.30
19214;DHT22;9741;51.020;5.304;2023-03-14T14:58:28;11.60;51.80
19214;DHT22;9741;51.020;5.304;2023-03-14T15:01:02;11.60;51.50
19214;DHT22;9741;51.020;5.304;2023-03-14T15:03:32;11.50;50.80
19214;DHT22;9741;51.020;5.304;2023-03-14T15:06:01;11.40;50.20
19214;DHT22;9741;51.020;5.304;2023-03-14T15:08:28;11.20;49.60
19214;DHT22;9741;51.020;5.304;2023-03-14T15:10:56;11.10;49.30
19214;DHT22;9741;51.020;5.304;2023-03-14T15:13:23;10.90;48.80
19214;DHT22;9741;51.020;5.304;2023-03-14T15:15:50;10.80;48.60
19214;DHT22;9741;51.020;5.304;2023-03-14T15:18:24;10.60;48.20
19214;DHT22;9741;51.020;5.304;2023-03-14T15:20:52;10.40;47.60
19214;DHT22;9741;51.020;5.304;2023-03-14T15:23:20;10.20;47.00
19214;DHT22;9741;51.020;5.304;2023-03-14T15:25:48;10.00;46.60
19214;DHT22;9741;51.020;5.304;2023-03-14T15:28:17;9.90;47.60
19214;DHT22;9741;51.020;5.304;2023-03-14T15:30:45;9.70;47.70
19214;DHT22;9741;51.020;5.304;2023-03-14T15:33:13;9.50;47.90
19214;DHT22;9741;51.020;5.304;2023-03-14T15:35:41;9.50;47.90
19214;DHT22;9741;51.020;5.304;2023-03-14T15:38:11;9.40;48.00
19214;DHT22;9741;51.020;5.304;2023-03-14T15:40:39;9.40;48.20
19214;DHT22;9741;51.020;5.304;2023-03-14T15:43:06;9.40;49.00
19214;DHT22;9741;51.020;5.304;2023-03-14T15:45:33;9.40;48.50
19214;DHT22;9741;51.020;5.304;2023-03-14T15:48:00;9.30;48.20
19214;DHT22;9741;51.020;5.304;2023-03-14T15:50:27;9.30;47.90
19214;DHT22;9741;51.020;5.304;2023-03-14T15:52:56;9.30;47.80
19214;DHT22;9741;51.020;5.304;2023-03-14T15:55:23;9.20;47.50
19214;DHT22;9741;51.020;5.304;2023-03-14T15:57:50;9.30;47.50
19214;DHT22;9741;51.020;5.304;2023-03-14T16:00:19;9.30;48.10
19214;DHT22;9741;51.020;5.304;2023-03-14T16:02:47;9.40;48.20
19214;DHT22;9741;51.020;5.304;2023-03-14T16:05:14;9.40;47.40